Архив погоды в Воронеже

Метеограмма Воронеж
Вторник, 24 Апреля
Время местн. Темп Ветер Видим Явления Облачность нижн/средн/верх Атм. давл. Влжн Точка росы ВНГО R Сост. почвы Tg s
Напр Скр Прв ур.ст ур.м изм
09:00 +6.5° З 4 - 10 км - ясно 749 763 +0.2 44% -4.8° более 2.5 км - - - -
06:00 +1.4° З 4 - 10 км - ясно 749 763 +0.8 61% -5.2° более 2.5 км - Сухая (без трещин) - -
03:00 +1.5° З 3 - 10 км - ясно 748 762 +0.4 63% -4.7° более 2.5 км - - - -
00:00 +2.9° З 4 - 10 км - ясно 748 761 +0.2 57% -4.7° более 2.5 км - - - -
Понедельник, 23 Апреля
Время местн. Темп Ветер Видим Явления Облачность нижн/средн/верх Атм. давл. Влжн Точка росы ВНГО R Сост. почвы Tg s
Напр Скр Прв ур.ст ур.м изм
21:00 +4.6° З,С-З 3 - 10 км - ясно 747 761 +1 45% -6.2° более 2.5 км - - - -
18:00 +7.7° З,С-З 5 - 10 км - переменная облачность 747 760 +0.5 30% -8.7° 1 км - - - -
15:00 +6.6° С,С-З 5 10 10 км - облачно с прояснениями 746 760 +0.2 31% -9.3° 1 км - - - -
12:00 +5.8° З,С-З 6 10 10 км - преимущественно облачно 746 760 +0.8 32% -9.4° 1 км - - - -
09:00 +3.3° С-З 6 - 10 км - облачно с прояснениями 745 759 +1.1 57% -4.5° 1 км - - - -
06:00 +1.2° С-З 4 - 10 км - преимущественно облачно 744 758 +1.3 77% -2.3° 1.5 км 0 Влажная (без луж) -1° -
03:00 +1.5° С-З 3 - 10 км - переменная облачность 743 757 +1.1 72% -2.9° 1.5 км - - - -
00:00 +5° С 4 - 10 км - облачно 742 755 +1.7 70% 1.5 км - - - -
Воскресенье, 22 Апреля
Время местн. Темп Ветер Видим Явления Облачность нижн/средн/верх Атм. давл. Влжн Точка росы ВНГО R Сост. почвы Tg s
Напр Скр Прв ур.ст ур.м изм
21:00 +6.3° С-З 2 - 10 км облака рассеиваются {ливневые осадки} облачно с прояснениями 740 753 +1.2 79% +2.9° 2 км - - - -
18:00 +6° З 4 - 10 км облака развиваются {ливневые осадки} облачно 739 752 +1.1 80% +2.9° 1 км - - - -
15:00 +9.6° З 9 15 10 км - преимущественно облачно 738 751 +0.8 59% +2° 1.5 км - - - -
12:00 +10.8° З,С-З 9 13 10 км - переменная облачность 737 750 +0.7 46% -0.4° 1.5 км - - - -
09:00 +9.2° З,С-З 8 12 10 км - облачно с прояснениями 736 750 +0.2 59% +1.5° 1.5 км - - - -
06:00 +7° З,С-З 6 - 10 км - переменная облачность 736 750 +1.5 66% +1° 1.5 км - - - -
03:00 +10.8° С-З 8 12 10 км облака рассеиваются {ливневые осадки} переменная облачность 735 748 +0.8 58% +3° 1 км - - - -
00:00 +11.6° З,Ю-З 2 - 10 км слабый ливневый дождь облачно 734 747 -1.1 86% +9.4° 600 м - - - -
Суббота, 21 Апреля
Время местн. Темп Ветер Видим Явления Облачность нижн/средн/верх Атм. давл. Влжн Точка росы ВНГО R Сост. почвы Tg s
Напр Скр Прв ур.ст ур.м изм
21:00 +17.2° Ю-З 7 15 10 км - облачно с прояснениями 735 748 -2.3 37% +2.5° более 2.5 км - - - -
18:00 +19.8° З 10 12 10 км - переменная облачность 737 750 -3 31% +2° - - - - -
15:00 +19° З 8 12 10 км - переменная облачность 740 753 -3.1 32% +2° более 2.5 км - - - -
12:00 +15.8° З 5 - 10 км - облачно с прояснениями 1043 756 -1.9 37% +1.2° - - - - -
09:00 +10.6° З 3 - 10 км - преимущественно облачно 745 759 -1 51% +1° - - - - -
06:00 +7° З 3 - 10 км - облачно 746 760 -0.2 64% +0.7° - - - - -